Portada
METAR-TAF:

METAR-TAF

Aeroports :

Phetchabun, Tailàndia

latitud: 16-40-33N, longitud: 101-11-42E, altitud: 137 m

Observació

L'informe es va fer fa 54 minuts, a les 03:00 UTC
Vent 3 kt del Sud/Sud-Est
Temperatura 28°C
Humitat 89%
Pressió 1009 hPa
Visibilitat 10 km o més
Cel ennuvolat a una alçada de 2500 ft

METAR: VTPB 300300Z 16003KT 9999 BKN025 28/26 Q1009 NOSIG

Hora: 10:54 (03:54 UTC)

Pronòstic

L'informe es va fer fa 4 hores i 54 minuts, a les 23:00 UTC
Pronòstic vàlid del 30 a les 00 UTC al 30 a les 24 UTC
Vent 5 kt del Sud
Visibilitat 10 km o més
Cel ennuvolat a una alçada de 2500 ft
Temporalment
l' 30 a les 08 UTC al 30 a les 14 UTC
Vent 15 kt del Oest amb ràfegues de 25 kt
Visibilitat: 4000 m
Escasses núvols a una alçada de 2000 ft, Cumulonimbus.
Cel ennuvolat a una alçada de 2500 ft
tempesta, pluja

TAF: VTPB 292300Z 3000/3024 18005KT 9999 BKN025 TEMPO 3008/3014 28015G25KT 4000 TSRA FEW020CB BKN025

Observacions i pronòstics meteorològics de més de 4000 aeroports (METAR i TAF).

Les estacions disponibles són els punts grocs i vermells al mapa.

Posi el ratolí al punt desitjat per veure el nom de l'estació.

Feu clic per veure les observacions i els pronòstics meteorològics.

Per canviar el mapa: feu clic els botons verds amb una creu de color negre per apropar; al botó verd amb un guió per allunyar la imatge; o en les fletxes verdes per a mapes adjacents.


METAR-TAF: